Flinterbothnia — PBLG — position and weather

sailwx.info

Track history (hours):
 
Tides and Currents Weather Stations Pressure Air Temp Water Temp Dewpoint Dewpoint Depression Visibility Wind Speed Wind Dir Waves Ship Positions

Flinterbothnia

Last reported at 2015-Mar-01 15:32 UTC. Time now 2015-Mar-01 19:21 UTC.
Position N 57°48' E 010°42'.

Length 82 m; draft 5.2 m.

Type: Cargo ship. MMSI: 244741000.

Date/timePositionNaut miles runAvg speedWind from/ knotsBaromVisibWave heightAir tempDewpointWater temp
2015-Mar-01 15:32N 57°48' E 010°42'19 9.6
2015-Mar-01 13:33N 57°36' E 011°10'1110.2
2015-Mar-01 12:30N 57°29' E 011°25'1110.0
2015-Mar-01 11:22N 57°18' E 011°33'1910.3
2015-Mar-01 09:33N 57°02' E 011°48'1010.3
2015-Mar-01 08:33N 56°52' E 011°55'10 9.7
2015-Mar-01 07:33N 56°43' E 012°03'10 9.9
2015-Mar-01 06:33N 56°34' E 012°10'2210.4
2015-Mar-01 04:26N 56°14' E 012°27'1112.4
2015-Mar-01 03:33N 56°05' E 012°37'1111.2
2015-Mar-01 02:33N 55°55' E 012°44'1111.4
2015-Mar-01 01:33N 55°43' E 012°42'1211.5
2015-Mar-01 00:33N 55°32' E 012°43'1110.6
2015-Feb-28 23:33N 55°21' E 012°41'9 8.9
2015-Feb-28 22:33N 55°16' E 012°54'1010.1
2015-Feb-28 21:33N 55°16' E 013°12'1110.3
2015-Feb-28 20:31N 55°15' E 013°31'1010.0
2015-Feb-28 19:33N 55°15' E 013°48'1010.0
2015-Feb-28 18:33N 55°14' E 014°05'9 8.9
2015-Feb-28 17:33N 55°17' E 014°20'10 9.8
2015-Feb-28 16:33N 55°24' E 014°31'10 9.8
2015-Feb-28 15:33N 55°31' E 014°44'1010.2
2015-Feb-28 14:33N 55°36' E 015°00'1010.0
2015-Feb-28 13:32N 55°41' E 015°16'  
2015-Feb-25 00:17N 51°43' E 005°16'  
2015-Feb-21 16:17N 57°09' E 017°37'123 9.6
2015-Feb-21 03:33N 55°35' E 015°16'1010.5
2015-Feb-21 02:33N 55°29' E 014°60'1110.6
2015-Feb-21 01:33N 55°24' E 014°44'1010.1
2015-Feb-21 00:33N 55°17' E 014°32'1010.3
2015-Feb-20 23:33N 55°09' E 014°20'1010.2
2015-Feb-20 22:33N 55°01' E 014°09'1010.2
2015-Feb-20 21:33N 54°56' E 013°53'1010.0
2015-Feb-20 20:33N 54°53' E 013°37'1410.0
2015-Feb-20 19:08N 54°47' E 013°14'1610.1
2015-Feb-20 17:33N 54°41' E 012°49'1210.1
2015-Feb-20 16:21N 54°35' E 012°30'810.4
2015-Feb-20 15:33N 54°31' E 012°18'1010.4
2015-Feb-20 14:33N 54°22' E 012°09'10 9.9
2015-Feb-20 13:33N 54°13' E 012°05'4 1.8
2015-Feb-20 11:25N 54°09' E 012°07'0 0.0
2015-Feb-20 10:28N 54°09' E 012°07'0 0.0
2015-Feb-20 09:31N 54°09' E 012°07'0 0.0
2015-Feb-20 08:04N 54°09' E 012°07'0 0.0
2015-Feb-20 07:28N 54°09' E 012°07'0 0.0
2015-Feb-20 06:31N 54°09' E 012°07'0 0.0
2015-Feb-20 05:28N 54°09' E 012°07'0 0.0
2015-Feb-20 04:31N 54°09' E 012°07'0 0.0
2015-Feb-20 03:28N 54°09' E 012°07'0 0.0
2015-Feb-20 00:13N 54°09' E 012°07'0 0.0
2015-Feb-19 23:31N 54°09' E 012°07'0 0.0
2015-Feb-19 22:31N 54°09' E 012°07'0 0.0
2015-Feb-19 21:31N 54°09' E 012°07'0 0.0
2015-Feb-19 20:31N 54°09' E 012°07'0 0.0
2015-Feb-19 19:25N 54°09' E 012°07'0 0.0
2015-Feb-19 18:31N 54°09' E 012°07'0 0.0
2015-Feb-19 17:31N 54°09' E 012°07'3 3.6
2015-Feb-19 16:33N 54°12' E 012°04'3 2.7
2015-Feb-19 15:32N 54°13' E 011°60'  
Track history (hours):
 
Tides and Currents Weather Stations Pressure Air Temp Water Temp Dewpoint Dewpoint Depression Visibility Wind Speed Wind Dir Waves Ship Positions

Flinterbothnia

Last reported at 2015-Mar-01 15:32 UTC. Time now 2015-Mar-01 19:21 UTC.
Position N 57°48' E 010°42'.

Length 82 m; draft 5.2 m.

Type: Cargo ship. MMSI: 244741000.

Date/timePositionNaut miles runAvg speedWind from/ knotsBaromVisibWave heightAir tempDewpointWater temp
2015-Mar-01 15:32N 57°48' E 010°42'19 9.6
2015-Mar-01 13:33N 57°36' E 011°10'1110.2
2015-Mar-01 12:30N 57°29' E 011°25'1110.0
2015-Mar-01 11:22N 57°18' E 011°33'1910.3
2015-Mar-01 09:33N 57°02' E 011°48'1010.3
2015-Mar-01 08:33N 56°52' E 011°55'10 9.7
2015-Mar-01 07:33N 56°43' E 012°03'10 9.9
2015-Mar-01 06:33N 56°34' E 012°10'2210.4
2015-Mar-01 04:26N 56°14' E 012°27'1112.4
2015-Mar-01 03:33N 56°05' E 012°37'1111.2
2015-Mar-01 02:33N 55°55' E 012°44'1111.4
2015-Mar-01 01:33N 55°43' E 012°42'1211.5
2015-Mar-01 00:33N 55°32' E 012°43'1110.6
2015-Feb-28 23:33N 55°21' E 012°41'9 8.9
2015-Feb-28 22:33N 55°16' E 012°54'1010.1
2015-Feb-28 21:33N 55°16' E 013°12'1110.3
2015-Feb-28 20:31N 55°15' E 013°31'1010.0
2015-Feb-28 19:33N 55°15' E 013°48'1010.0
2015-Feb-28 18:33N 55°14' E 014°05'9 8.9
2015-Feb-28 17:33N 55°17' E 014°20'10 9.8
2015-Feb-28 16:33N 55°24' E 014°31'10 9.8
2015-Feb-28 15:33N 55°31' E 014°44'1010.2
2015-Feb-28 14:33N 55°36' E 015°00'1010.0
2015-Feb-28 13:32N 55°41' E 015°16'  
2015-Feb-25 00:17N 51°43' E 005°16'  
2015-Feb-21 16:17N 57°09' E 017°37'123 9.6
2015-Feb-21 03:33N 55°35' E 015°16'1010.5
2015-Feb-21 02:33N 55°29' E 014°60'1110.6
2015-Feb-21 01:33N 55°24' E 014°44'1010.1
2015-Feb-21 00:33N 55°17' E 014°32'1010.3
2015-Feb-20 23:33N 55°09' E 014°20'1010.2
2015-Feb-20 22:33N 55°01' E 014°09'1010.2
2015-Feb-20 21:33N 54°56' E 013°53'1010.0
2015-Feb-20 20:33N 54°53' E 013°37'1410.0
2015-Feb-20 19:08N 54°47' E 013°14'1610.1
2015-Feb-20 17:33N 54°41' E 012°49'1210.1
2015-Feb-20 16:21N 54°35' E 012°30'810.4
2015-Feb-20 15:33N 54°31' E 012°18'1010.4
2015-Feb-20 14:33N 54°22' E 012°09'10 9.9
2015-Feb-20 13:33N 54°13' E 012°05'4 1.8
2015-Feb-20 11:25N 54°09' E 012°07'0 0.0
2015-Feb-20 10:28N 54°09' E 012°07'0 0.0
2015-Feb-20 09:31N 54°09' E 012°07'0 0.0
2015-Feb-20 08:04N 54°09' E 012°07'0 0.0
2015-Feb-20 07:28N 54°09' E 012°07'0 0.0
2015-Feb-20 06:31N 54°09' E 012°07'0 0.0
2015-Feb-20 05:28N 54°09' E 012°07'0 0.0
2015-Feb-20 04:31N 54°09' E 012°07'0 0.0
2015-Feb-20 03:28N 54°09' E 012°07'0 0.0
2015-Feb-20 00:13N 54°09' E 012°07'0 0.0
2015-Feb-19 23:31N 54°09' E 012°07'0 0.0
2015-Feb-19 22:31N 54°09' E 012°07'0 0.0
2015-Feb-19 21:31N 54°09' E 012°07'0 0.0
2015-Feb-19 20:31N 54°09' E 012°07'0 0.0
2015-Feb-19 19:25N 54°09' E 012°07'0 0.0
2015-Feb-19 18:31N 54°09' E 012°07'0 0.0
2015-Feb-19 17:31N 54°09' E 012°07'3 3.6
2015-Feb-19 16:33N 54°12' E 012°04'3 2.7
2015-Feb-19 15:32N 54°13' E 011°60'  

Dump ship's entire track history